Time;durP1;ratioP1;P1;durP2;ratioP2;P2;SDS_P1;SDS_P2;PMS_P1;PMS_P2;Temp;Humidity;BMP_temperature;BMP_pressure;BME280_temperature;BME280_humidity;BME280_pressure;Samples;Min_cycle;Max_cycle;Signal;HPM_P1;HPM_P2
2022/11/27 00:01:38;;;;;;;;;;;11.50;76.20;;;;;;7358009;19;20015;-77
2022/11/27 00:04:07;;;;;;;28.27;6.55;;;11.60;76.20;;;;;;7391148;19;19982;-76
2022/11/27 00:06:37;;;;;;;23.42;6.80;;;11.50;75.80;;;;;;7356692;19;20024;-77
2022/11/27 00:09:08;;;;;;;17.00;5.93;;;11.50;75.70;;;;;;7369247;19;20031;-76
2022/11/27 00:11:38;;;;;;;28.80;7.05;;;11.50;75.80;;;;;;7369503;19;20074;-76
2022/11/27 00:14:21;;;;;;;19.55;5.80;;;11.50;75.80;;;;;;7370456;19;20039;-77
2022/11/27 00:16:49;;;;;;;16.75;6.80;;;11.50;75.80;;;;;;7369177;19;21250;-77
2022/11/27 00:19:18;;;;;;;21.55;6.43;;;11.60;75.90;;;;;;7388818;19;20019;-77
2022/11/27 00:21:47;;;;;;;22.80;6.68;;;11.50;75.70;;;;;;7393252;19;20692;-77
2022/11/27 00:24:15;;;;;;;27.30;6.78;;;11.50;75.60;;;;;;7369569;19;20025;-76
2022/11/27 00:26:45;;;;;;;20.90;6.72;;;11.50;75.60;;;;;;7370649;19;20022;-77
2022/11/27 00:29:16;;;;;;;24.40;6.93;;;11.60;75.60;;;;;;7367542;19;20553;-76
2022/11/27 00:31:45;;;;;;;15.07;6.40;;;11.60;75.60;;;;;;7371778;19;20426;-77
2022/11/27 00:34:14;;;;;;;19.83;6.00;;;11.60;75.60;;;;;;7392154;19;20015;-76
2022/11/27 00:36:42;;;;;;;22.95;7.32;;;11.50;75.40;;;;;;7363776;19;20022;-77
2022/11/27 00:39:12;;;;;;;20.92;7.07;;;11.60;75.50;;;;;;7368694;19;20086;-77
2022/11/27 00:41:41;;;;;;;17.38;6.10;;;11.60;75.50;;;;;;7367701;19;20362;-77
2022/11/27 00:44:09;;;;;;;27.65;6.75;;;11.60;75.50;;;;;;7368303;19;20014;-77
2022/11/27 00:46:42;;;;;;;24.60;6.68;;;11.60;75.50;;;;;;7371861;19;20093;-78
2022/11/27 00:49:13;;;;;;;26.38;7.32;;;11.50;76.20;;;;;;7395704;19;20018;-77
2022/11/27 00:51:43;;;;;;;24.27;6.75;;;11.50;75.30;;;;;;7322280;19;20078;-77
2022/11/27 00:54:11;;;;;;;19.60;6.53;;;11.60;75.40;;;;;;7397924;19;20098;-77
2022/11/27 00:56:42;;;;;;;22.02;6.97;;;11.60;75.30;;;;;;7374866;19;20456;-77
2022/11/27 00:59:12;;;;;;;27.88;7.55;;;11.60;75.40;;;;;;7383762;19;20011;-77
2022/11/27 01:01:44;;;;;;;19.20;6.90;;;11.60;75.20;;;;;;7375276;19;20018;-77
2022/11/27 01:04:16;;;;;;;20.88;6.88;;;11.60;75.20;;;;;;7396423;19;20018;-77
2022/11/27 01:06:46;;;;;;;27.13;6.82;;;11.60;75.30;;;;;;7372969;19;20017;-77
2022/11/27 01:09:15;;;;;;;24.25;6.70;;;11.60;75.30;;;;;;7325506;19;20023;-76
2022/11/27 01:11:44;;;;;;;25.30;7.53;;;11.60;75.20;;;;;;7401070;19;20018;-77
2022/11/27 01:14:18;;;;;;;20.42;7.25;;;11.50;75.30;;;;;;7373267;19;20021;-75
2022/11/27 01:16:49;;;;;;;25.17;7.05;;;11.50;75.20;;;;;;7366294;19;20010;-76
2022/11/27 01:19:18;;;;;;;21.60;7.40;;;11.50;75.30;;;;;;7401874;19;20023;-76
2022/11/27 01:21:47;;;;;;;21.95;7.32;;;11.50;75.30;;;;;;7376607;19;20048;-76
2022/11/27 01:24:17;;;;;;;18.73;6.88;;;11.50;75.40;;;;;;7376616;19;20082;-77
2022/11/27 01:26:47;;;;;;;26.27;7.85;;;11.50;75.20;;;;;;7373883;19;20007;-76
2022/11/27 01:29:15;;;;;;;18.92;7.45;;;11.60;75.30;;;;;;7321386;19;20019;-76
2022/11/27 01:31:44;;;;;;;21.20;8.13;;;11.60;75.30;;;;;;7394417;19;20021;-77
2022/11/27 01:34:19;;;;;;;25.75;7.95;;;11.50;75.30;;;;;;7401566;19;20074;-77
2022/11/27 01:36:48;;;;;;;20.17;7.00;;;11.50;75.30;;;;;;7313782;19;20841;-77
2022/11/27 01:39:19;;;;;;;19.30;7.78;;;11.60;75.20;;;;;;7400373;19;20029;-76
2022/11/27 01:41:49;;;;;;;23.42;8.05;;;11.50;75.20;;;;;;7375610;19;20015;-77
2022/11/27 01:44:48;;;;;;;22.88;7.75;;;11.50;75.10;;;;;;7353516;19;20014;-77
2022/11/27 01:47:23;;;;;;;19.80;7.53;;;11.50;75.00;;;;;;7321408;19;20014;-76
2022/11/27 01:49:57;;;;;;;25.80;7.68;;;11.50;75.00;;;;;;7393118;19;20022;-76
2022/11/27 01:52:29;;;;;;;24.45;7.43;;;11.50;75.00;;;;;;7400134;19;20081;-76
2022/11/27 01:55:03;;;;;;;17.10;7.28;;;11.50;75.00;;;;;;7375469;19;20023;-77
2022/11/27 01:57:35;;;;;;;24.02;7.63;;;11.50;75.00;;;;;;7373617;19;20037;-76
2022/11/27 02:00:04;;;;;;;15.52;7.10;;;11.50;75.10;;;;;;7375904;19;20025;-76
2022/11/27 02:02:33;;;;;;;23.35;7.93;;;11.50;75.00;;;;;;7370329;19;20090;-75
2022/11/27 02:05:05;;;;;;;20.98;6.75;;;11.50;74.90;;;;;;7371945;19;20469;-76
2022/11/27 02:07:33;;;;;;;22.10;7.78;;;11.50;74.90;;;;;;7394717;19;20015;-76
2022/11/27 02:10:02;;;;;;;23.27;7.47;;;11.50;75.00;;;;;;7370674;19;20018;-76
2022/11/27 02:12:40;;;;;;;22.08;7.55;;;11.50;75.10;;;;;;7373127;19;20650;-76
2022/11/27 02:15:14;;;;;;;17.33;8.45;;;11.50;75.00;;;;;;7373570;19;20082;-76
2022/11/27 02:17:49;;;;;;;20.80;7.63;;;11.50;75.00;;;;;;7373299;19;20042;-77
2022/11/27 02:20:42;;;;;;;23.73;7.47;;;11.50;74.90;;;;;;7372394;19;20449;-75
2022/11/27 02:23:51;;;;;;;22.55;7.70;;;11.40;75.00;;;;;;7375409;19;20027;-75
2022/11/27 02:26:39;;;;;;;18.60;7.65;;;11.50;75.20;;;;;;7373696;19;20023;-76
2022/11/27 02:29:15;;;;;;;20.73;7.00;;;11.50;75.10;;;;;;7373431;19;20083;-76
2022/11/27 02:31:48;;;;;;;17.67;7.68;;;11.50;75.10;;;;;;7396486;19;20074;-76
2022/11/27 02:34:24;;;;;;;20.98;7.85;;;11.50;75.10;;;;;;7373719;19;20020;-76
2022/11/27 02:37:01;;;;;;;26.48;7.70;;;11.50;75.10;;;;;;7372347;19;20018;-76
2022/11/27 02:39:39;;;;;;;17.10;7.50;;;11.50;75.00;;;;;;7371337;19;20098;-75
2022/11/27 02:42:13;;;;;;;18.65;7.28;;;11.50;75.00;;;;;;7373498;19;20007;-75
2022/11/27 02:44:49;;;;;;;16.65;7.05;;;11.50;75.00;;;;;;7372687;19;20022;-75
2022/11/27 02:47:17;;;;;;;26.00;7.85;;;11.60;75.00;;;;;;7368303;19;20123;-76
2022/11/27 02:49:48;;;;;;;19.50;7.72;;;11.60;74.90;;;;;;7393663;19;20320;-76
2022/11/27 02:52:18;;;;;;;12.82;7.20;;;11.60;75.00;;;;;;7369240;19;20021;-76
2022/11/27 02:54:50;;;;;;;23.48;7.15;;;11.60;75.00;;;;;;7373559;19;20094;-76
2022/11/27 02:57:20;;;;;;;17.83;6.90;;;11.60;74.90;;;;;;7349506;19;20010;-76
2022/11/27 02:59:54;;;;;;;21.23;7.30;;;11.60;75.60;;;;;;7371525;19;20633;-75
2022/11/27 03:02:28;;;;;;;19.08;7.20;;;11.60;74.80;;;;;;7369419;19;20050;-76
2022/11/27 03:05:01;;;;;;;16.33;6.80;;;11.50;74.80;;;;;;7395676;19;20621;-75
2022/11/27 03:07:39;;;;;;;25.77;7.43;;;11.60;74.90;;;;;;7371633;19;20033;-75
2022/11/27 03:10:14;;;;;;;26.17;7.68;;;11.50;74.80;;;;;;7370088;19;20338;-76
2022/11/27 03:12:43;;;;;;;17.90;7.93;;;11.60;74.80;;;;;;7370355;19;20015;-76
2022/11/27 03:15:14;;;;;;;21.90;7.10;;;11.60;74.80;;;;;;7375126;19;20017;-75
2022/11/27 03:17:53;;;;;;;17.10;6.82;;;11.60;74.70;;;;;;7372322;19;20028;-75
2022/11/27 03:20:26;;;;;;;18.02;7.32;;;11.50;74.60;;;;;;7377131;19;20021;-76
2022/11/27 03:22:55;;;;;;;22.58;7.03;;;11.60;74.70;;;;;;7395276;19;20014;-76
2022/11/27 03:25:25;;;;;;;20.65;6.93;;;11.60;74.80;;;;;;7372432;19;20002;-76
2022/11/27 03:27:59;;;;;;;17.27;6.88;;;11.50;74.70;;;;;;7353057;19;20325;-76
2022/11/27 03:30:30;;;;;;;18.13;6.38;;;11.50;74.70;;;;;;7372486;19;20798;-76
2022/11/27 03:32:58;;;;;;;;;;;11.50;74.90;;;;;;7372888;19;20010;-76
2022/11/27 03:35:28;;;;;;;20.63;6.88;;;11.60;75.00;;;;;;7396148;19;19925;-75
2022/11/27 03:37:58;;;;;;;22.00;7.45;;;11.50;74.80;;;;;;7368849;19;20025;-76
2022/11/27 03:40:32;;;;;;;18.98;7.18;;;11.60;74.90;;;;;;7355916;19;20022;-75
2022/11/27 03:43:06;;;;;;;17.15;6.68;;;11.60;74.90;;;;;;7362944;19;20022;-76
2022/11/27 03:45:45;;;;;;;15.05;6.97;;;11.60;74.90;;;;;;7369721;19;20015;-76
2022/11/27 03:48:22;;;;;;;18.45;7.30;;;11.50;74.90;;;;;;7371350;19;20019;-75
2022/11/27 03:51:04;;;;;;;21.13;6.80;;;11.50;74.90;;;;;;7372005;19;20110;-75
2022/11/27 03:53:36;;;;;;;;;;;11.50;74.90;;;;;;7373131;19;20021;-76
2022/11/27 03:56:11;;;;;;;18.10;6.95;;;11.60;74.90;;;;;;7392521;19;19958;-76
2022/11/27 03:58:42;;;;;;;21.25;7.28;;;11.50;74.70;;;;;;7367818;19;20030;-76
2022/11/27 04:01:15;;;;;;;;;;;11.50;74.80;;;;;;7343759;19;20014;-75
2022/11/27 04:03:44;;;;;;;17.83;6.32;;;11.60;75.00;;;;;;7370071;19;19919;-76
2022/11/27 04:06:13;;;;;;;22.48;7.07;;;11.60;74.90;;;;;;7369681;19;20024;-76
2022/11/27 04:08:42;;;;;;;19.70;6.68;;;11.50;74.90;;;;;;7382904;19;20019;-76
2022/11/27 04:11:11;;;;;;;16.35;6.32;;;11.60;75.00;;;;;;7393901;19;20011;-75
2022/11/27 04:13:39;;;;;;;22.40;7.03;;;11.60;74.90;;;;;;7368739;19;20011;-77
2022/11/27 04:16:09;;;;;;;11.70;5.90;;;11.60;75.00;;;;;;7370178;19;20018;-75
2022/11/27 04:18:40;;;;;;;21.05;7.47;;;11.50;75.00;;;;;;7361012;19;20014;-75
2022/11/27 04:21:09;;;;;;;;;;;11.50;75.20;;;;;;7370172;19;20035;-75
2022/11/27 04:23:39;;;;;;;17.15;6.78;;;11.60;75.30;;;;;;7370500;19;19986;-76
2022/11/27 04:26:08;;;;;;;19.67;6.90;;;11.60;75.20;;;;;;7400239;19;20026;-76
2022/11/27 04:28:37;;;;;;;17.90;7.57;;;11.60;75.30;;;;;;7377431;19;20015;-76
2022/11/27 04:31:06;;;;;;;15.25;6.80;;;11.60;75.40;;;;;;7371992;19;20044;-76
2022/11/27 04:33:35;;;;;;;22.42;6.68;;;11.60;75.40;;;;;;7377759;19;20015;-76
2022/11/27 04:36:06;;;;;;;16.10;6.68;;;11.60;75.50;;;;;;7376351;19;20900;-76
2022/11/27 04:38:35;;;;;;;19.35;6.97;;;11.50;75.30;;;;;;7399234;19;20089;-76
2022/11/27 04:41:04;;;;;;;21.05;7.65;;;11.60;75.50;;;;;;7377376;19;20019;-76
2022/11/27 04:43:32;;;;;;;22.27;8.15;;;11.60;75.60;;;;;;7375905;19;20074;-76
2022/11/27 04:46:01;;;;;;;25.45;7.95;;;11.60;75.70;;;;;;7375372;19;20098;-76
2022/11/27 04:48:30;;;;;;;21.10;8.15;;;11.60;75.60;;;;;;7375745;19;20086;-76
2022/11/27 04:50:59;;;;;;;21.48;8.02;;;11.60;75.70;;;;;;7366349;19;20679;-76
2022/11/27 04:53:30;;;;;;;17.08;7.03;;;11.50;75.50;;;;;;7399801;19;20022;-76
2022/11/27 04:55:58;;;;;;;18.88;7.72;;;11.50;75.50;;;;;;7376712;19;20066;-76
2022/11/27 04:58:27;;;;;;;26.65;7.75;;;11.50;75.60;;;;;;7375479;19;20078;-76
2022/11/27 05:00:59;;;;;;;27.23;8.02;;;11.50;76.50;;;;;;7399224;19;20090;-76
2022/11/27 05:03:28;;;;;;;18.90;8.10;;;11.50;75.80;;;;;;7375583;19;20014;-75
2022/11/27 05:05:58;;;;;;;23.73;8.30;;;11.50;75.60;;;;;;7377630;19;20817;-76
2022/11/27 05:08:27;;;;;;;20.55;7.40;;;11.50;75.70;;;;;;7399477;19;20022;-75
2022/11/27 05:11:07;;;;;;;22.02;7.88;;;11.40;75.70;;;;;;7375267;19;20453;-76
2022/11/27 05:13:36;;;;;;;21.30;7.45;;;11.40;75.90;;;;;;7403339;19;20018;-76
2022/11/27 05:16:05;;;;;;;27.85;8.32;;;11.50;75.90;;;;;;7377714;19;20077;-76
2022/11/27 05:18:34;;;;;;;15.25;7.18;;;11.40;75.70;;;;;;7365945;19;20007;-75
2022/11/27 05:21:05;;;;;;;23.55;8.20;;;11.40;75.80;;;;;;7395809;19;20010;-76
2022/11/27 05:23:34;;;;;;;18.15;7.90;;;11.40;76.00;;;;;;7376005;19;20007;-76
2022/11/27 05:26:05;;;;;;;22.73;8.05;;;11.40;76.00;;;;;;7376325;19;20097;-76
2022/11/27 05:28:34;;;;;;;22.67;8.70;;;11.40;76.10;;;;;;7374379;19;20014;-76
2022/11/27 05:31:02;;;;;;;19.50;8.00;;;11.40;76.00;;;;;;7377524;19;20014;-76
2022/11/27 05:33:31;;;;;;;21.17;7.82;;;11.40;75.80;;;;;;7371505;19;20018;-76
2022/11/27 05:36:00;;;;;;;19.92;8.23;;;11.40;75.90;;;;;;7396356;19;20033;-76
2022/11/27 05:38:28;;;;;;;15.75;7.35;;;11.40;75.90;;;;;;7372521;19;20086;-76
2022/11/27 05:40:57;;;;;;;17.00;8.30;;;11.40;75.80;;;;;;7375722;19;20014;-76
2022/11/27 05:43:28;;;;;;;17.85;7.78;;;11.50;75.90;;;;;;7319196;19;20018;-76
2022/11/27 05:45:57;;;;;;;19.65;7.97;;;11.50;75.90;;;;;;7394781;19;20338;-76
2022/11/27 05:48:26;;;;;;;30.50;9.00;;;11.50;75.90;;;;;;7374542;19;20086;-75
2022/11/27 05:50:55;;;;;;;21.92;7.30;;;11.50;75.80;;;;;;7397023;19;20021;-75
2022/11/27 05:53:23;;;;;;;17.92;8.48;;;11.40;75.80;;;;;;7358947;19;20047;-76
2022/11/27 05:55:52;;;;;;;17.80;7.68;;;11.40;75.90;;;;;;7375374;19;20018;-76
2022/11/27 05:58:21;;;;;;;27.02;8.32;;;11.40;76.10;;;;;;7372673;19;20090;-76
2022/11/27 06:00:52;;;;;;;26.65;8.20;;;11.40;76.20;;;;;;7366391;19;20082;-75
2022/11/27 06:03:21;;;;;;;;;;;11.40;76.30;;;;;;7372594;19;20018;-75
2022/11/27 06:05:49;;;;;;;20.30;8.48;;;11.50;76.30;;;;;;7395641;19;19974;-75
2022/11/27 06:08:18;;;;;;;28.00;8.60;;;11.50;76.10;;;;;;7355354;19;20093;-75
2022/11/27 06:10:47;;;;;;;16.23;7.43;;;11.50;76.20;;;;;;7370000;19;20056;-75
2022/11/27 06:13:16;;;;;;;17.48;7.72;;;11.40;76.00;;;;;;7373165;19;20033;-76
2022/11/27 06:15:45;;;;;;;22.30;8.23;;;11.40;76.20;;;;;;7371684;19;20032;-76
2022/11/27 06:18:16;;;;;;;24.23;8.23;;;11.40;76.10;;;;;;7395015;19;20022;-76
2022/11/27 06:20:45;;;;;;;22.58;7.78;;;11.40;76.30;;;;;;7371752;19;20022;-76
2022/11/27 06:23:14;;;;;;;23.67;7.50;;;11.40;76.30;;;;;;7375263;19;20110;-76
2022/11/27 06:25:43;;;;;;;26.80;8.73;;;11.40;76.30;;;;;;7368759;19;20018;-76
2022/11/27 06:28:11;;;;;;;20.90;7.95;;;11.50;76.40;;;;;;7373372;19;20094;-75
2022/11/27 06:30:40;;;;;;;23.23;8.10;;;11.50;77.20;;;;;;7362269;19;20111;-75
2022/11/27 06:33:09;;;;;;;28.52;7.65;;;11.50;76.30;;;;;;7395584;19;20037;-75
2022/11/27 06:35:40;;;;;;;24.52;8.73;;;11.50;76.30;;;;;;7373919;19;20093;-74
2022/11/27 06:38:09;;;;;;;27.88;7.70;;;11.50;76.40;;;;;;7367277;19;20015;-75
2022/11/27 06:40:37;;;;;;;26.60;8.85;;;11.50;77.10;;;;;;7372120;19;20548;-75
2022/11/27 06:43:06;;;;;;;23.15;7.53;;;11.40;76.30;;;;;;7370141;19;20050;-76
2022/11/27 06:45:35;;;;;;;19.38;7.90;;;11.50;77.10;;;;;;7395887;19;20025;-76
2022/11/27 06:48:03;;;;;;;24.55;8.27;;;11.50;76.30;;;;;;7372183;19;20093;-75
2022/11/27 06:50:32;;;;;;;21.23;7.45;;;11.50;76.40;;;;;;7367659;19;20142;-75
2022/11/27 06:53:03;;;;;;;21.50;8.18;;;11.50;76.30;;;;;;7359864;19;20006;-76
2022/11/27 06:55:32;;;;;;;29.70;7.93;;;11.50;76.50;;;;;;7346973;19;20038;-75
2022/11/27 06:58:01;;;;;;;17.38;7.97;;;11.50;76.50;;;;;;7395894;19;20390;-75
2022/11/27 07:00:29;;;;;;;19.67;8.13;;;11.50;76.30;;;;;;7395800;19;20093;-76
2022/11/27 07:02:58;;;;;;;27.75;7.72;;;11.50;77.20;;;;;;7372543;19;20010;-76
2022/11/27 07:05:28;;;;;;;17.10;7.75;;;11.50;76.50;;;;;;7359370;19;20098;-76
2022/11/27 07:07:57;;;;;;;19.73;7.93;;;11.50;76.60;;;;;;7368331;19;20010;-75
2022/11/27 07:10:28;;;;;;;20.85;8.85;;;11.50;76.50;;;;;;7372262;19;20030;-75
2022/11/27 07:12:57;;;;;;;25.05;8.07;;;11.50;76.50;;;;;;7371477;19;20018;-75
2022/11/27 07:15:26;;;;;;;18.23;7.32;;;11.50;76.60;;;;;;7396425;19;20470;-75
2022/11/27 07:17:54;;;;;;;19.60;7.68;;;11.50;76.50;;;;;;7371385;19;20105;-75
2022/11/27 07:20:23;;;;;;;18.90;6.75;;;11.50;76.50;;;;;;7370825;19;20025;-76
2022/11/27 07:22:52;;;;;;;31.88;8.77;;;11.50;76.50;;;;;;7363813;19;20085;-75
2022/11/27 07:25:20;;;;;;;20.63;8.13;;;11.50;76.60;;;;;;7313776;19;20007;-76
2022/11/27 07:27:52;;;;;;;25.10;8.45;;;11.50;76.60;;;;;;7393179;19;20101;-75
2022/11/27 07:30:20;;;;;;;26.20;8.00;;;11.50;76.50;;;;;;7395985;19;20353;-75
2022/11/27 07:32:49;;;;;;;20.00;7.75;;;11.50;76.50;;;;;;7370372;19;20081;-75
2022/11/27 07:35:18;;;;;;;23.83;9.05;;;11.50;77.40;;;;;;7371941;19;20129;-75
2022/11/27 07:37:47;;;;;;;24.42;8.85;;;11.50;76.70;;;;;;7329448;19;20026;-76
2022/11/27 07:40:17;;;;;;;19.95;8.38;;;11.50;76.90;;;;;;7359060;19;20031;-75
2022/11/27 07:42:45;;;;;;;27.67;9.00;;;11.50;77.00;;;;;;7369327;19;20046;-76
2022/11/27 07:45:17;;;;;;;27.67;9.00;;;11.50;77.00;;;;;;7391851;19;20021;-75
2022/11/27 07:47:45;;;;;;;;;;;11.60;77.10;;;;;;7371472;19;20023;-75
2022/11/27 07:50:14;;;;;;;26.10;8.63;;;11.60;77.20;;;;;;7349163;19;19926;-75
2022/11/27 07:52:43;;;;;;;18.00;8.48;;;11.60;76.90;;;;;;7368583;19;20026;-75
2022/11/27 07:55:12;;;;;;;22.13;8.65;;;11.50;77.10;;;;;;7367161;19;20007;-76
2022/11/27 07:57:41;;;;;;;19.67;8.68;;;11.50;77.20;;;;;;7393184;19;20025;-75
2022/11/27 08:00:11;;;;;;;21.10;8.98;;;11.60;77.40;;;;;;7376759;19;20743;-75
2022/11/27 08:02:42;;;;;;;28.35;9.02;;;11.60;77.60;;;;;;7372983;19;20138;-75
2022/11/27 08:05:12;;;;;;;30.00;9.63;;;11.60;77.70;;;;;;7374380;19;20462;-75
2022/11/27 08:07:40;;;;;;;29.13;10.02;;;11.60;77.80;;;;;;7369910;19;20087;-75
2022/11/27 08:10:10;;;;;;;26.45;9.48;;;11.60;77.90;;;;;;7372975;19;20521;-75
2022/11/27 08:12:39;;;;;;;35.47;12.43;;;11.60;77.90;;;;;;7398436;19;20055;-75
2022/11/27 08:15:09;;;;;;;29.05;12.07;;;11.70;78.00;;;;;;7377803;19;20023;-75
2022/11/27 08:17:38;;;;;;;27.88;11.10;;;11.60;78.10;;;;;;7346881;19;20700;-75
2022/11/27 08:20:11;;;;;;;32.30;10.93;;;11.60;78.30;;;;;;7371803;19;20017;-75
2022/11/27 08:22:40;;;;;;;21.35;10.35;;;11.60;78.30;;;;;;7374145;19;20015;-75
2022/11/27 08:25:09;;;;;;;37.35;13.02;;;11.70;78.60;;;;;;7375908;19;20117;-76
2022/11/27 08:27:38;;;;;;;26.30;9.10;;;11.70;78.60;;;;;;7398965;19;20018;-76
2022/11/27 08:30:09;;;;;;;29.77;11.02;;;11.70;78.40;;;;;;7344381;19;20015;-76
2022/11/27 08:32:40;;;;;;;27.37;11.57;;;11.60;78.40;;;;;;7375724;19;20018;-76
2022/11/27 08:35:16;;;;;;;28.55;11.18;;;11.70;78.60;;;;;;7374753;19;20015;-76
2022/11/27 08:37:44;;;;;;;32.85;13.52;;;11.70;78.60;;;;;;7373948;19;20079;-76
2022/11/27 08:40:14;;;;;;;27.77;11.73;;;11.70;79.40;;;;;;7373905;19;20836;-76
2022/11/27 08:42:42;;;;;;;28.67;11.57;;;11.70;78.70;;;;;;7396867;19;20645;-76
2022/11/27 08:45:12;;;;;;;31.67;10.45;;;11.70;78.70;;;;;;7370103;19;20106;-77
2022/11/27 08:47:42;;;;;;;26.00;11.00;;;11.80;78.80;;;;;;7371030;19;20011;-78
2022/11/27 08:50:13;;;;;;;24.27;10.30;;;11.80;78.80;;;;;;7377647;19;20038;-78
2022/11/27 08:52:42;;;;;;;;;;;11.80;78.80;;;;;;7379083;19;20099;-79
2022/11/27 08:55:11;;;;;;;30.77;10.70;;;11.90;78.90;;;;;;7373030;19;19990;-77
2022/11/27 08:57:40;;;;;;;33.92;12.38;;;11.90;78.70;;;;;;7398813;19;20018;-77
2022/11/27 09:00:10;;;;;;;32.85;12.18;;;11.90;78.50;;;;;;7373196;19;20011;-79
2022/11/27 09:02:38;;;;;;;28.65;10.85;;;11.90;78.50;;;;;;7376155;19;20019;-78
2022/11/27 09:05:08;;;;;;;30.70;11.35;;;11.90;78.50;;;;;;7375514;19;20026;-76
2022/11/27 09:07:39;;;;;;;25.98;10.63;;;11.90;78.60;;;;;;7375676;19;20086;-77
2022/11/27 09:10:08;;;;;;;;;;;11.90;78.60;;;;;;7371985;19;20018;-77
2022/11/27 09:12:37;;;;;;;23.77;10.38;;;12.00;78.90;;;;;;7391195;19;19974;-78
2022/11/27 09:15:07;;;;;;;23.48;11.20;;;12.00;78.50;;;;;;7357812;19;20429;-79
2022/11/27 09:17:36;;;;;;;27.40;10.82;;;12.00;78.50;;;;;;7377410;19;20117;-79
2022/11/27 09:20:05;;;;;;;25.70;9.70;;;12.00;78.50;;;;;;7377039;19;20011;-79
2022/11/27 09:22:34;;;;;;;30.45;10.48;;;12.00;78.50;;;;;;7403666;19;20064;-78
2022/11/27 09:25:06;;;;;;;22.70;9.93;;;12.00;78.50;;;;;;7400784;19;20051;-79
2022/11/27 09:27:35;;;;;;;25.95;11.13;;;12.00;78.40;;;;;;7336958;19;20018;-78
2022/11/27 09:30:04;;;;;;;61.85;11.80;;;12.00;78.30;;;;;;7376866;19;20043;-78
2022/11/27 09:32:32;;;;;;;24.90;10.45;;;12.00;78.50;;;;;;7395379;19;20007;-78
2022/11/27 09:35:01;;;;;;;25.23;10.38;;;12.00;78.50;;;;;;7373492;19;20017;-80
2022/11/27 09:37:30;;;;;;;33.25;11.55;;;12.00;78.30;;;;;;7370742;19;20010;-79
2022/11/27 09:39:58;;;;;;;32.38;11.00;;;12.10;78.40;;;;;;7371843;19;20078;-78
2022/11/27 09:42:42;;;;;;;30.58;10.70;;;12.10;78.40;;;;;;7400392;19;20473;-80
2022/11/27 09:45:16;;;;;;;28.90;11.73;;;12.10;78.50;;;;;;7399723;19;20095;-80
2022/11/27 09:47:50;;;;;;;32.95;11.63;;;12.10;78.20;;;;;;7357703;19;20045;-81
2022/11/27 09:50:31;;;;;;;29.58;11.35;;;12.10;78.30;;;;;;7374317;19;20488;-81
2022/11/27 09:53:04;;;;;;;27.03;10.83;;;12.00;78.40;;;;;;7375184;19;20110;-80
2022/11/27 09:55:40;;;;;;;31.38;11.32;;;12.10;78.20;;;;;;7374766;19;20297;-80
2022/11/27 09:58:18;;;;;;;31.60;11.23;;;12.10;78.20;;;;;;7396734;19;20028;-80
2022/11/27 10:00:47;;;;;;;28.92;11.77;;;12.10;78.20;;;;;;7373831;19;20079;-79
2022/11/27 10:03:17;;;;;;;31.95;12.25;;;12.10;78.10;;;;;;7373706;19;20071;-79
2022/11/27 10:05:52;;;;;;;25.85;11.10;;;12.20;78.10;;;;;;7374697;19;20014;-80
2022/11/27 10:08:30;;;;;;;28.42;10.80;;;12.10;78.10;;;;;;7374823;19;20035;-80
2022/11/27 10:11:11;;;;;;;30.75;10.38;;;12.10;78.20;;;;;;7375664;19;20395;-80
2022/11/27 10:13:58;;;;;;;26.17;10.57;;;12.10;78.90;;;;;;7374539;19;20031;-82
2022/11/27 10:16:35;;;;;;;26.42;11.02;;;12.10;78.10;;;;;;7374891;19;20042;-78
2022/11/27 10:19:13;;;;;;;25.50;10.35;;;12.20;78.00;;;;;;7394047;19;20090;-78
2022/11/27 10:21:49;;;;;;;24.50;10.57;;;12.20;78.00;;;;;;7373432;19;20375;-79
2022/11/27 10:24:26;;;;;;;21.17;9.88;;;12.20;78.20;;;;;;7373046;19;20014;-79
2022/11/27 10:26:57;;;;;;;31.40;10.25;;;12.20;79.10;;;;;;7373823;19;20022;-81
2022/11/27 10:29:37;;;;;;;31.23;10.52;;;12.20;78.60;;;;;;7373812;19;20891;-80
2022/11/27 10:32:13;;;;;;;31.60;10.90;;;12.20;78.60;;;;;;7375271;19;20377;-78
2022/11/27 10:34:47;;;;;;;20.88;8.82;;;12.30;78.50;;;;;;7372045;19;20126;-79
2022/11/27 10:37:22;;;;;;;25.65;9.45;;;12.30;78.50;;;;;;7396171;19;20025;-80
2022/11/27 10:39:55;;;;;;;22.70;9.90;;;12.30;78.50;;;;;;7372092;19;20043;-80
2022/11/27 10:42:29;;;;;;;26.88;10.88;;;12.40;78.50;;;;;;7373520;19;20090;-80
2022/11/27 10:45:04;;;;;;;30.60;10.02;;;12.40;78.30;;;;;;7372143;19;20089;-78
2022/11/27 10:47:34;;;;;;;23.02;9.90;;;12.40;78.30;;;;;;7373356;19;20018;-76
2022/11/27 10:50:02;;;;;;;26.58;10.70;;;12.40;78.30;;;;;;7369491;19;20019;-79
2022/11/27 10:52:31;;;;;;;28.13;10.35;;;12.40;78.40;;;;;;7373403;19;20102;-75
2022/11/27 10:55:02;;;;;;;28.48;10.40;;;12.50;78.60;;;;;;7392349;19;20011;-76
2022/11/27 10:57:45;;;;;;;27.65;10.60;;;12.50;78.60;;;;;;7371939;19;20006;-78
2022/11/27 11:00:21;;;;;;;23.15;10.20;;;12.50;78.40;;;;;;7372550;19;20341;-76
2022/11/27 11:03:00;;;;;;;24.90;10.43;;;12.60;78.30;;;;;;7373022;19;20106;-76
2022/11/27 11:05:30;;;;;;;23.63;10.82;;;12.60;78.20;;;;;;7369797;19;20014;-77
2022/11/27 11:08:03;;;;;;;19.80;9.60;;;12.70;78.30;;;;;;7366983;19;20541;-76
2022/11/27 11:10:35;;;;;;;23.35;9.63;;;12.70;78.20;;;;;;7368292;19;20512;-75
2022/11/27 11:13:19;;;;;;;20.77;9.85;;;12.70;78.00;;;;;;7390398;19;20421;-76
2022/11/27 11:16:08;;;;;;;25.08;10.32;;;12.70;78.10;;;;;;7363095;19;20539;-76
2022/11/27 11:18:45;;;;;;;24.58;9.57;;;12.70;78.00;;;;;;7365966;19;20452;-76
2022/11/27 11:21:18;;;;;;;22.70;9.50;;;12.80;77.80;;;;;;7365983;19;20022;-76
2022/11/27 11:24:01;;;;;;;19.85;8.85;;;12.80;77.70;;;;;;7365234;19;20098;-75
2022/11/27 11:26:33;;;;;;;26.58;9.40;;;12.70;77.70;;;;;;7369478;19;20011;-75
2022/11/27 11:29:04;;;;;;;22.42;9.90;;;12.80;77.40;;;;;;7368309;19;20090;-77
2022/11/27 11:31:40;;;;;;;22.50;9.38;;;12.80;77.40;;;;;;7370587;19;20019;-75
2022/11/27 11:34:20;;;;;;;19.08;9.02;;;12.80;77.70;;;;;;7391893;19;20074;-75
2022/11/27 11:36:57;;;;;;;22.73;9.05;;;12.80;77.70;;;;;;7370354;19;20406;-74
2022/11/27 11:39:29;;;;;;;27.08;9.35;;;12.80;77.60;;;;;;7370138;19;20113;-73
2022/11/27 11:41:58;;;;;;;15.43;7.78;;;12.80;77.50;;;;;;7368681;19;20091;-75
2022/11/27 11:44:34;;;;;;;17.10;8.23;;;12.80;77.00;;;;;;7370139;19;20101;-75
2022/11/27 11:47:06;;;;;;;15.35;7.90;;;12.80;76.80;;;;;;7371239;19;20493;-76
2022/11/27 11:49:36;;;;;;;16.92;6.97;;;12.80;76.20;;;;;;7370284;19;20007;-76
2022/11/27 11:52:30;;;;;;;17.00;6.82;;;12.80;75.90;;;;;;7389449;19;20018;-76
2022/11/27 11:55:05;;;;;;;18.25;6.95;;;12.70;75.10;;;;;;7368986;19;20019;-76
2022/11/27 11:58:09;;;;;;;17.25;6.90;;;12.80;74.80;;;;;;7370145;19;20112;-76
2022/11/27 12:00:43;;;;;;;22.02;7.22;;;12.80;74.70;;;;;;7369387;19;20056;-77
2022/11/27 12:03:34;;;;;;;19.27;7.75;;;12.80;74.90;;;;;;7367517;19;20015;-76
2022/11/27 12:06:29;;;;;;;17.42;6.63;;;12.90;75.20;;;;;;7369573;19;20493;-76
2022/11/27 12:09:12;;;;;;;20.20;7.03;;;12.90;75.00;;;;;;7369637;19;20018;-75
2022/11/27 12:11:49;;;;;;;18.60;5.95;;;12.90;74.30;;;;;;7369893;19;20021;-75
2022/11/27 12:14:25;;;;;;;13.30;5.97;;;13.00;74.20;;;;;;7368837;19;20100;-75
2022/11/27 12:17:07;;;;;;;18.77;5.78;;;13.00;74.30;;;;;;7370036;19;20817;-75
2022/11/27 12:19:59;;;;;;;12.02;5.47;;;13.00;73.20;;;;;;7369673;19;20196;-75
2022/11/27 12:22:47;;;;;;;10.77;5.78;;;13.00;73.30;;;;;;7368384;19;20035;-79
2022/11/27 12:25:31;;;;;;;15.43;5.90;;;13.00;73.30;;;;;;7392464;19;20455;-78
2022/11/27 12:28:17;;;;;;;12.45;5.93;;;13.00;72.90;;;;;;7370616;19;20021;-78
2022/11/27 12:30:52;;;;;;;16.80;6.22;;;12.90;72.40;;;;;;7368318;19;20014;-77
2022/11/27 12:33:42;;;;;;;18.92;6.07;;;12.90;72.90;;;;;;7369665;19;20022;-76
2022/11/27 12:36:24;;;;;;;11.48;5.10;;;12.90;72.50;;;;;;7368520;19;20082;-77
2022/11/27 12:39:12;;;;;;;17.42;5.95;;;12.90;72.50;;;;;;7368828;19;20014;-78
2022/11/27 12:42:00;;;;;;;14.70;5.85;;;12.90;73.00;;;;;;7370323;19;20910;-79
2022/11/27 12:44:37;;;;;;;14.07;5.65;;;12.90;73.40;;;;;;7370560;19;20023;-78
2022/11/27 12:47:13;;;;;;;14.02;6.28;;;13.00;73.20;;;;;;7376500;19;20027;-78
2022/11/27 12:49:46;;;;;;;9.82;5.30;;;13.00;73.40;;;;;;7377913;19;20121;-79
2022/11/27 12:52:21;;;;;;;14.10;5.18;;;13.00;73.50;;;;;;7400099;19;20035;-78
2022/11/27 12:54:55;;;;;;;11.32;4.90;;;13.00;73.30;;;;;;7379638;19;20089;-79
2022/11/27 12:57:33;;;;;;;16.15;5.00;;;13.00;73.10;;;;;;7378862;19;20437;-75
2022/11/27 13:00:06;;;;;;;15.93;5.25;;;13.00;73.10;;;;;;7378700;19;20505;-76
2022/11/27 13:02:40;;;;;;;15.43;5.53;;;13.00;73.10;;;;;;7379042;19;20420;-74
2022/11/27 13:05:16;;;;;;;15.68;5.45;;;13.00;72.90;;;;;;7394197;19;20031;-79